sensor_id;sensor_type;location;lat;lon;timestamp;pressure;altitude;pressure_sealevel;temperature
29423;BMP180;16399;51.686;8.684;2023-08-06T00:01:15;98939.00;;;14.50
29423;BMP180;16399;51.686;8.684;2023-08-06T00:04:19;98929.00;;;14.50
29423;BMP180;16399;51.686;8.684;2023-08-06T00:07:21;98936.00;;;14.60
29423;BMP180;16399;51.686;8.684;2023-08-06T00:10:24;98935.00;;;14.60
29423;BMP180;16399;51.686;8.684;2023-08-06T00:13:26;98930.00;;;14.60
29423;BMP180;16399;51.686;8.684;2023-08-06T00:16:28;98934.00;;;14.60
29423;BMP180;16399;51.686;8.684;2023-08-06T00:19:32;98932.00;;;14.60
29423;BMP180;16399;51.686;8.684;2023-08-06T00:22:35;98925.00;;;14.60
29423;BMP180;16399;51.686;8.684;2023-08-06T00:25:38;98924.00;;;14.60
29423;BMP180;16399;51.686;8.684;2023-08-06T00:28:40;98928.00;;;14.60
29423;BMP180;16399;51.686;8.684;2023-08-06T00:31:43;98920.00;;;14.60
29423;BMP180;16399;51.686;8.684;2023-08-06T00:34:45;98918.00;;;14.60
29423;BMP180;16399;51.686;8.684;2023-08-06T00:37:47;98916.00;;;14.70
29423;BMP180;16399;51.686;8.684;2023-08-06T00:40:49;98910.00;;;14.70
29423;BMP180;16399;51.686;8.684;2023-08-06T00:43:52;98913.00;;;14.70
29423;BMP180;16399;51.686;8.684;2023-08-06T00:46:55;98905.00;;;14.70
29423;BMP180;16399;51.686;8.684;2023-08-06T00:49:57;98906.00;;;14.70
29423;BMP180;16399;51.686;8.684;2023-08-06T00:53:00;98902.00;;;14.70
29423;BMP180;16399;51.686;8.684;2023-08-06T00:56:03;98896.00;;;14.70
29423;BMP180;16399;51.686;8.684;2023-08-06T00:59:06;98902.00;;;14.70
29423;BMP180;16399;51.686;8.684;2023-08-06T01:02:08;98893.00;;;14.70
29423;BMP180;16399;51.686;8.684;2023-08-06T01:05:11;98887.00;;;14.70
29423;BMP180;16399;51.686;8.684;2023-08-06T01:11:54;98891.00;;;14.70
29423;BMP180;16399;51.686;8.684;2023-08-06T01:15:00;98873.00;;;14.60
29423;BMP180;16399;51.686;8.684;2023-08-06T01:18:02;98865.00;;;14.60
29423;BMP180;16399;51.686;8.684;2023-08-06T01:21:04;98875.00;;;14.60
29423;BMP180;16399;51.686;8.684;2023-08-06T01:24:07;98862.00;;;14.60
29423;BMP180;16399;51.686;8.684;2023-08-06T01:30:23;98874.00;;;14.60
29423;BMP180;16399;51.686;8.684;2023-08-06T01:33:27;98858.00;;;14.60
29423;BMP180;16399;51.686;8.684;2023-08-06T01:36:30;98863.00;;;14.60
29423;BMP180;16399;51.686;8.684;2023-08-06T01:39:36;98848.00;;;14.60
29423;BMP180;16399;51.686;8.684;2023-08-06T01:42:39;98854.00;;;14.60
29423;BMP180;16399;51.686;8.684;2023-08-06T01:45:41;98846.00;;;14.60
29423;BMP180;16399;51.686;8.684;2023-08-06T01:48:43;98849.00;;;14.60
29423;BMP180;16399;51.686;8.684;2023-08-06T01:51:46;98826.00;;;14.50
29423;BMP180;16399;51.686;8.684;2023-08-06T01:54:48;98832.00;;;14.60
29423;BMP180;16399;51.686;8.684;2023-08-06T01:57:50;98821.00;;;14.50
29423;BMP180;16399;51.686;8.684;2023-08-06T02:00:52;98822.00;;;14.50
29423;BMP180;16399;51.686;8.684;2023-08-06T02:03:55;98822.00;;;14.50
29423;BMP180;16399;51.686;8.684;2023-08-06T02:06:57;98817.00;;;14.50
29423;BMP180;16399;51.686;8.684;2023-08-06T02:09:59;98822.00;;;14.50
29423;BMP180;16399;51.686;8.684;2023-08-06T02:13:02;98821.00;;;14.50
29423;BMP180;16399;51.686;8.684;2023-08-06T02:16:06;98819.00;;;14.50
29423;BMP180;16399;51.686;8.684;2023-08-06T02:19:08;98815.00;;;14.50
29423;BMP180;16399;51.686;8.684;2023-08-06T02:22:10;98811.00;;;14.50
29423;BMP180;16399;51.686;8.684;2023-08-06T02:25:12;98809.00;;;14.50
29423;BMP180;16399;51.686;8.684;2023-08-06T02:28:15;98800.00;;;14.50
29423;BMP180;16399;51.686;8.684;2023-08-06T02:31:17;98801.00;;;14.50
29423;BMP180;16399;51.686;8.684;2023-08-06T02:34:19;98803.00;;;14.50
29423;BMP180;16399;51.686;8.684;2023-08-06T02:37:22;98793.00;;;14.50
29423;BMP180;16399;51.686;8.684;2023-08-06T02:40:24;98792.00;;;14.50
29423;BMP180;16399;51.686;8.684;2023-08-06T02:43:26;98791.00;;;14.50
29423;BMP180;16399;51.686;8.684;2023-08-06T02:46:28;98780.00;;;14.40
29423;BMP180;16399;51.686;8.684;2023-08-06T02:49:31;98788.00;;;14.40
29423;BMP180;16399;51.686;8.684;2023-08-06T02:52:33;98786.00;;;14.40
29423;BMP180;16399;51.686;8.684;2023-08-06T02:55:35;98788.00;;;14.40
29423;BMP180;16399;51.686;8.684;2023-08-06T02:58:38;98792.00;;;14.30
29423;BMP180;16399;51.686;8.684;2023-08-06T03:01:40;98780.00;;;14.30
29423;BMP180;16399;51.686;8.684;2023-08-06T03:04:42;98776.00;;;14.30
29423;BMP180;16399;51.686;8.684;2023-08-06T03:07:45;98773.00;;;14.30
29423;BMP180;16399;51.686;8.684;2023-08-06T03:10:47;98774.00;;;14.20
29423;BMP180;16399;51.686;8.684;2023-08-06T03:13:49;98758.00;;;14.20
29423;BMP180;16399;51.686;8.684;2023-08-06T03:16:51;98763.00;;;14.20
29423;BMP180;16399;51.686;8.684;2023-08-06T03:19:54;98751.00;;;14.20
29423;BMP180;16399;51.686;8.684;2023-08-06T03:22:56;98756.00;;;14.20
29423;BMP180;16399;51.686;8.684;2023-08-06T03:26:02;98759.00;;;14.10
29423;BMP180;16399;51.686;8.684;2023-08-06T03:29:05;98756.00;;;14.10
29423;BMP180;16399;51.686;8.684;2023-08-06T03:32:07;98748.00;;;14.10
29423;BMP180;16399;51.686;8.684;2023-08-06T03:35:09;98746.00;;;14.10
29423;BMP180;16399;51.686;8.684;2023-08-06T03:38:12;98740.00;;;14.10
29423;BMP180;16399;51.686;8.684;2023-08-06T03:41:14;98742.00;;;14.10
29423;BMP180;16399;51.686;8.684;2023-08-06T03:44:16;98734.00;;;14.10
29423;BMP180;16399;51.686;8.684;2023-08-06T03:47:18;98731.00;;;14.10
29423;BMP180;16399;51.686;8.684;2023-08-06T03:50:21;98727.00;;;14.00
29423;BMP180;16399;51.686;8.684;2023-08-06T03:53:23;98726.00;;;14.00
29423;BMP180;16399;51.686;8.684;2023-08-06T03:56:25;98726.00;;;14.00
29423;BMP180;16399;51.686;8.684;2023-08-06T03:59:28;98714.00;;;14.00
29423;BMP180;16399;51.686;8.684;2023-08-06T04:02:31;98710.00;;;14.00
29423;BMP180;16399;51.686;8.684;2023-08-06T04:05:33;98708.00;;;14.00
29423;BMP180;16399;51.686;8.684;2023-08-06T04:08:35;98711.00;;;14.00
29423;BMP180;16399;51.686;8.684;2023-08-06T04:11:38;98704.00;;;14.00
29423;BMP180;16399;51.686;8.684;2023-08-06T04:14:40;98711.00;;;14.00
29423;BMP180;16399;51.686;8.684;2023-08-06T04:17:42;98716.00;;;14.00
29423;BMP180;16399;51.686;8.684;2023-08-06T04:20:46;98727.00;;;14.00
29423;BMP180;16399;51.686;8.684;2023-08-06T04:23:50;98723.00;;;14.10
29423;BMP180;16399;51.686;8.684;2023-08-06T04:26:52;98721.00;;;14.10
29423;BMP180;16399;51.686;8.684;2023-08-06T04:29:54;98721.00;;;14.10
29423;BMP180;16399;51.686;8.684;2023-08-06T04:32:57;98719.00;;;14.10
29423;BMP180;16399;51.686;8.684;2023-08-06T04:36:00;98714.00;;;14.10
29423;BMP180;16399;51.686;8.684;2023-08-06T04:39:02;98717.00;;;14.10
29423;BMP180;16399;51.686;8.684;2023-08-06T04:42:05;98725.00;;;14.10
29423;BMP180;16399;51.686;8.684;2023-08-06T04:45:07;98714.00;;;14.10
29423;BMP180;16399;51.686;8.684;2023-08-06T04:48:10;98713.00;;;14.10
29423;BMP180;16399;51.686;8.684;2023-08-06T04:51:12;98726.00;;;14.20
29423;BMP180;16399;51.686;8.684;2023-08-06T04:54:15;98721.00;;;14.20
29423;BMP180;16399;51.686;8.684;2023-08-06T04:57:17;98721.00;;;14.20
29423;BMP180;16399;51.686;8.684;2023-08-06T05:00:20;98708.00;;;14.30
29423;BMP180;16399;51.686;8.684;2023-08-06T05:03:22;98717.00;;;14.30
29423;BMP180;16399;51.686;8.684;2023-08-06T05:06:24;98719.00;;;14.40
29423;BMP180;16399;51.686;8.684;2023-08-06T05:09:27;98717.00;;;14.40
29423;BMP180;16399;51.686;8.684;2023-08-06T05:12:29;98719.00;;;14.50
29423;BMP180;16399;51.686;8.684;2023-08-06T05:15:31;98723.00;;;14.60
29423;BMP180;16399;51.686;8.684;2023-08-06T05:18:34;98716.00;;;14.70
29423;BMP180;16399;51.686;8.684;2023-08-06T05:21:38;98718.00;;;14.80
29423;BMP180;16399;51.686;8.684;2023-08-06T05:24:40;98726.00;;;14.80
29423;BMP180;16399;51.686;8.684;2023-08-06T05:27:43;98721.00;;;14.90
29423;BMP180;16399;51.686;8.684;2023-08-06T05:30:45;98719.00;;;14.90
29423;BMP180;16399;51.686;8.684;2023-08-06T05:33:47;98728.00;;;14.90
29423;BMP180;16399;51.686;8.684;2023-08-06T05:36:49;98725.00;;;15.00
29423;BMP180;16399;51.686;8.684;2023-08-06T05:39:52;98713.00;;;15.00
29423;BMP180;16399;51.686;8.684;2023-08-06T05:42:54;98723.00;;;15.00
29423;BMP180;16399;51.686;8.684;2023-08-06T05:45:57;98720.00;;;15.10
29423;BMP180;16399;51.686;8.684;2023-08-06T05:48:59;98732.00;;;15.10
29423;BMP180;16399;51.686;8.684;2023-08-06T05:52:01;98736.00;;;15.20
29423;BMP180;16399;51.686;8.684;2023-08-06T05:55:06;98736.00;;;15.20
29423;BMP180;16399;51.686;8.684;2023-08-06T05:58:08;98732.00;;;15.30
29423;BMP180;16399;51.686;8.684;2023-08-06T06:01:10;98737.00;;;15.30
29423;BMP180;16399;51.686;8.684;2023-08-06T06:04:13;98729.00;;;15.40
29423;BMP180;16399;51.686;8.684;2023-08-06T06:07:15;98732.00;;;15.40
29423;BMP180;16399;51.686;8.684;2023-08-06T06:10:17;98725.00;;;15.40
29423;BMP180;16399;51.686;8.684;2023-08-06T06:13:19;98741.00;;;15.50
29423;BMP180;16399;51.686;8.684;2023-08-06T06:16:22;98737.00;;;15.50
29423;BMP180;16399;51.686;8.684;2023-08-06T06:19:24;98732.00;;;15.50
29423;BMP180;16399;51.686;8.684;2023-08-06T06:22:26;98729.00;;;15.60
29423;BMP180;16399;51.686;8.684;2023-08-06T06:25:29;98725.00;;;15.70
29423;BMP180;16399;51.686;8.684;2023-08-06T06:28:32;98734.00;;;15.70
29423;BMP180;16399;51.686;8.684;2023-08-06T06:31:34;98729.00;;;15.80
29423;BMP180;16399;51.686;8.684;2023-08-06T06:34:36;98722.00;;;15.90
29423;BMP180;16399;51.686;8.684;2023-08-06T06:37:38;98727.00;;;16.00
29423;BMP180;16399;51.686;8.684;2023-08-06T06:40:41;98722.00;;;16.10
29423;BMP180;16399;51.686;8.684;2023-08-06T06:43:44;98720.00;;;16.10
29423;BMP180;16399;51.686;8.684;2023-08-06T06:46:46;98725.00;;;16.20
29423;BMP180;16399;51.686;8.684;2023-08-06T06:49:48;98727.00;;;16.30
29423;BMP180;16399;51.686;8.684;2023-08-06T06:52:51;98722.00;;;16.40
29423;BMP180;16399;51.686;8.684;2023-08-06T06:55:54;98710.00;;;16.50
29423;BMP180;16399;51.686;8.684;2023-08-06T06:58:56;98709.00;;;16.60
29423;BMP180;16399;51.686;8.684;2023-08-06T07:01:59;98705.00;;;16.80
29423;BMP180;16399;51.686;8.684;2023-08-06T07:05:01;98705.00;;;17.00
29423;BMP180;16399;51.686;8.684;2023-08-06T07:08:03;98699.00;;;17.10
29423;BMP180;16399;51.686;8.684;2023-08-06T07:11:07;98695.00;;;17.30
29423;BMP180;16399;51.686;8.684;2023-08-06T07:14:09;98692.00;;;17.60
29423;BMP180;16399;51.686;8.684;2023-08-06T07:17:11;98697.00;;;17.80
29423;BMP180;16399;51.686;8.684;2023-08-06T07:20:13;98691.00;;;17.80
29423;BMP180;16399;51.686;8.684;2023-08-06T07:23:16;98696.00;;;17.90
29423;BMP180;16399;51.686;8.684;2023-08-06T07:26:18;98687.00;;;17.90
29423;BMP180;16399;51.686;8.684;2023-08-06T07:29:20;98682.00;;;18.00
29423;BMP180;16399;51.686;8.684;2023-08-06T07:32:23;98689.00;;;18.10
29423;BMP180;16399;51.686;8.684;2023-08-06T07:35:28;98677.00;;;18.20
29423;BMP180;16399;51.686;8.684;2023-08-06T07:38:30;98685.00;;;18.40
29423;BMP180;16399;51.686;8.684;2023-08-06T07:41:33;98680.00;;;18.50
29423;BMP180;16399;51.686;8.684;2023-08-06T07:44:35;98675.00;;;18.60
29423;BMP180;16399;51.686;8.684;2023-08-06T07:47:37;98675.00;;;18.70
29423;BMP180;16399;51.686;8.684;2023-08-06T07:50:39;98672.00;;;18.70
29423;BMP180;16399;51.686;8.684;2023-08-06T07:53:42;98671.00;;;18.80
29423;BMP180;16399;51.686;8.684;2023-08-06T07:56:44;98682.00;;;18.90
29423;BMP180;16399;51.686;8.684;2023-08-06T07:59:46;98677.00;;;19.00
29423;BMP180;16399;51.686;8.684;2023-08-06T08:02:50;98685.00;;;19.00
29423;BMP180;16399;51.686;8.684;2023-08-06T08:05:54;98674.00;;;19.00
29423;BMP180;16399;51.686;8.684;2023-08-06T08:09:00;98667.00;;;19.00
29423;BMP180;16399;51.686;8.684;2023-08-06T08:12:02;98667.00;;;19.10
29423;BMP180;16399;51.686;8.684;2023-08-06T08:15:05;98662.00;;;19.20
29423;BMP180;16399;51.686;8.684;2023-08-06T08:18:07;98671.00;;;19.30
29423;BMP180;16399;51.686;8.684;2023-08-06T08:21:10;98671.00;;;19.60
29423;BMP180;16399;51.686;8.684;2023-08-06T08:24:12;98669.00;;;19.70
29423;BMP180;16399;51.686;8.684;2023-08-06T08:27:14;98675.00;;;20.00
29423;BMP180;16399;51.686;8.684;2023-08-06T08:30:17;98664.00;;;20.20
29423;BMP180;16399;51.686;8.684;2023-08-06T08:33:20;98661.00;;;20.20
29423;BMP180;16399;51.686;8.684;2023-08-06T08:36:22;98672.00;;;20.10
29423;BMP180;16399;51.686;8.684;2023-08-06T08:39:24;98673.00;;;20.00
29423;BMP180;16399;51.686;8.684;2023-08-06T08:42:27;98674.00;;;19.90
29423;BMP180;16399;51.686;8.684;2023-08-06T08:45:30;98671.00;;;19.90
29423;BMP180;16399;51.686;8.684;2023-08-06T08:48:34;98673.00;;;19.80
29423;BMP180;16399;51.686;8.684;2023-08-06T08:51:36;98660.00;;;19.90
29423;BMP180;16399;51.686;8.684;2023-08-06T08:54:39;98656.00;;;20.10
29423;BMP180;16399;51.686;8.684;2023-08-06T08:57:42;98665.00;;;20.40
29423;BMP180;16399;51.686;8.684;2023-08-06T09:00:46;98660.00;;;20.60
29423;BMP180;16399;51.686;8.684;2023-08-06T09:03:51;98645.00;;;20.90
29423;BMP180;16399;51.686;8.684;2023-08-06T09:06:55;98654.00;;;21.40
29423;BMP180;16399;51.686;8.684;2023-08-06T09:10:00;98641.00;;;21.80
29423;BMP180;16399;51.686;8.684;2023-08-06T09:13:05;98647.00;;;22.30
29423;BMP180;16399;51.686;8.684;2023-08-06T09:16:07;98657.00;;;22.70
29423;BMP180;16399;51.686;8.684;2023-08-06T09:19:11;98660.00;;;22.80
29423;BMP180;16399;51.686;8.684;2023-08-06T09:22:19;98650.00;;;22.60
29423;BMP180;16399;51.686;8.684;2023-08-06T09:25:23;98655.00;;;22.50
29423;BMP180;16399;51.686;8.684;2023-08-06T09:28:46;98655.00;;;22.30
29423;BMP180;16399;51.686;8.684;2023-08-06T09:31:48;98656.00;;;22.20
29423;BMP180;16399;51.686;8.684;2023-08-06T09:34:56;98653.00;;;22.20
29423;BMP180;16399;51.686;8.684;2023-08-06T09:38:09;98648.00;;;22.40
29423;BMP180;16399;51.686;8.684;2023-08-06T09:41:25;98651.00;;;22.70
29423;BMP180;16399;51.686;8.684;2023-08-06T09:44:19;98648.00;;;22.80
29423;BMP180;16399;51.686;8.684;2023-08-06T09:47:24;98643.00;;;22.80
29423;BMP180;16399;51.686;8.684;2023-08-06T09:50:34;98651.00;;;22.80
29423;BMP180;16399;51.686;8.684;2023-08-06T09:53:40;98652.00;;;22.50
29423;BMP180;16399;51.686;8.684;2023-08-06T09:56:43;98647.00;;;22.20
29423;BMP180;16399;51.686;8.684;2023-08-06T09:59:46;98655.00;;;22.00
29423;BMP180;16399;51.686;8.684;2023-08-06T10:02:49;98662.00;;;21.70
29423;BMP180;16399;51.686;8.684;2023-08-06T10:05:52;98654.00;;;21.50
29423;BMP180;16399;51.686;8.684;2023-08-06T10:08:55;98650.00;;;21.40
29423;BMP180;16399;51.686;8.684;2023-08-06T10:11:58;98656.00;;;21.20
29423;BMP180;16399;51.686;8.684;2023-08-06T10:15:04;98658.00;;;21.20
29423;BMP180;16399;51.686;8.684;2023-08-06T10:18:08;98658.00;;;21.20
29423;BMP180;16399;51.686;8.684;2023-08-06T10:21:11;98651.00;;;21.20
29423;BMP180;16399;51.686;8.684;2023-08-06T10:24:14;98656.00;;;21.30
29423;BMP180;16399;51.686;8.684;2023-08-06T10:27:21;98653.00;;;21.30
29423;BMP180;16399;51.686;8.684;2023-08-06T10:30:31;98650.00;;;21.40
29423;BMP180;16399;51.686;8.684;2023-08-06T10:33:44;98650.00;;;21.50
29423;BMP180;16399;51.686;8.684;2023-08-06T10:36:47;98648.00;;;21.70
29423;BMP180;16399;51.686;8.684;2023-08-06T10:39:51;98642.00;;;21.90
29423;BMP180;16399;51.686;8.684;2023-08-06T10:42:53;98661.00;;;22.00
29423;BMP180;16399;51.686;8.684;2023-08-06T10:45:58;98662.00;;;22.00
29423;BMP180;16399;51.686;8.684;2023-08-06T10:48:59;98657.00;;;21.80
29423;BMP180;16399;51.686;8.684;2023-08-06T10:52:02;98664.00;;;21.60
29423;BMP180;16399;51.686;8.684;2023-08-06T10:55:05;98652.00;;;21.30
29423;BMP180;16399;51.686;8.684;2023-08-06T10:58:08;98666.00;;;20.80
29423;BMP180;16399;51.686;8.684;2023-08-06T11:01:11;98662.00;;;20.40
29423;BMP180;16399;51.686;8.684;2023-08-06T11:04:13;98668.00;;;20.00
29423;BMP180;16399;51.686;8.684;2023-08-06T11:07:17;98677.00;;;19.70
29423;BMP180;16399;51.686;8.684;2023-08-06T11:10:19;98674.00;;;19.40
29423;BMP180;16399;51.686;8.684;2023-08-06T11:13:21;98672.00;;;19.20
29423;BMP180;16399;51.686;8.684;2023-08-06T11:16:24;98682.00;;;19.10
29423;BMP180;16399;51.686;8.684;2023-08-06T11:19:26;98679.00;;;19.00
29423;BMP180;16399;51.686;8.684;2023-08-06T11:22:29;98683.00;;;18.90
29423;BMP180;16399;51.686;8.684;2023-08-06T11:25:36;98667.00;;;18.70
29423;BMP180;16399;51.686;8.684;2023-08-06T11:28:35;98684.00;;;18.50
29423;BMP180;16399;51.686;8.684;2023-08-06T11:31:37;98691.00;;;18.30
29423;BMP180;16399;51.686;8.684;2023-08-06T11:34:40;98699.00;;;18.00
29423;BMP180;16399;51.686;8.684;2023-08-06T11:37:46;98703.00;;;17.70
29423;BMP180;16399;51.686;8.684;2023-08-06T11:40:49;98712.00;;;17.50
29423;BMP180;16399;51.686;8.684;2023-08-06T11:43:52;98700.00;;;17.40
29423;BMP180;16399;51.686;8.684;2023-08-06T11:46:55;98696.00;;;17.30
29423;BMP180;16399;51.686;8.684;2023-08-06T11:49:58;98696.00;;;17.30
29423;BMP180;16399;51.686;8.684;2023-08-06T11:53:01;98687.00;;;17.40
29423;BMP180;16399;51.686;8.684;2023-08-06T11:56:04;98674.00;;;17.40
29423;BMP180;16399;51.686;8.684;2023-08-06T11:59:06;98678.00;;;17.50
29423;BMP180;16399;51.686;8.684;2023-08-06T12:02:09;98663.00;;;17.70
29423;BMP180;16399;51.686;8.684;2023-08-06T12:05:13;98661.00;;;17.90
29423;BMP180;16399;51.686;8.684;2023-08-06T12:08:15;98651.00;;;18.10
29423;BMP180;16399;51.686;8.684;2023-08-06T12:11:20;98658.00;;;18.30
29423;BMP180;16399;51.686;8.684;2023-08-06T12:14:21;98654.00;;;18.60
29423;BMP180;16399;51.686;8.684;2023-08-06T12:17:25;98650.00;;;18.90
29423;BMP180;16399;51.686;8.684;2023-08-06T12:20:28;98637.00;;;19.00
29423;BMP180;16399;51.686;8.684;2023-08-06T12:23:30;98649.00;;;19.20
29423;BMP180;16399;51.686;8.684;2023-08-06T12:26:34;98643.00;;;19.30
29423;BMP180;16399;51.686;8.684;2023-08-06T12:29:41;98641.00;;;19.50
29423;BMP180;16399;51.686;8.684;2023-08-06T12:32:41;98645.00;;;19.70
29423;BMP180;16399;51.686;8.684;2023-08-06T12:35:43;98646.00;;;19.70
29423;BMP180;16399;51.686;8.684;2023-08-06T12:38:46;98642.00;;;19.70
29423;BMP180;16399;51.686;8.684;2023-08-06T12:41:48;98641.00;;;19.70
29423;BMP180;16399;51.686;8.684;2023-08-06T12:44:51;98637.00;;;19.80
29423;BMP180;16399;51.686;8.684;2023-08-06T12:47:53;98630.00;;;19.90
29423;BMP180;16399;51.686;8.684;2023-08-06T12:50:56;98628.00;;;20.10
29423;BMP180;16399;51.686;8.684;2023-08-06T12:53:58;98640.00;;;20.20
29423;BMP180;16399;51.686;8.684;2023-08-06T12:57:01;98635.00;;;20.20
29423;BMP180;16399;51.686;8.684;2023-08-06T13:00:03;98643.00;;;20.20
29423;BMP180;16399;51.686;8.684;2023-08-06T13:03:06;98640.00;;;20.20
29423;BMP180;16399;51.686;8.684;2023-08-06T13:06:08;98633.00;;;20.30
29423;BMP180;16399;51.686;8.684;2023-08-06T13:09:10;98647.00;;;20.30
29423;BMP180;16399;51.686;8.684;2023-08-06T13:12:13;98654.00;;;20.30
29423;BMP180;16399;51.686;8.684;2023-08-06T13:15:15;98646.00;;;20.30
29423;BMP180;16399;51.686;8.684;2023-08-06T13:18:18;98640.00;;;20.30
29423;BMP180;16399;51.686;8.684;2023-08-06T13:21:20;98645.00;;;20.30
29423;BMP180;16399;51.686;8.684;2023-08-06T13:24:22;98639.00;;;20.40
29423;BMP180;16399;51.686;8.684;2023-08-06T13:27:25;98640.00;;;20.40
29423;BMP180;16399;51.686;8.684;2023-08-06T13:30:27;98634.00;;;20.40
29423;BMP180;16399;51.686;8.684;2023-08-06T13:33:29;98635.00;;;20.40
29423;BMP180;16399;51.686;8.684;2023-08-06T13:36:32;98639.00;;;20.60
29423;BMP180;16399;51.686;8.684;2023-08-06T13:39:34;98649.00;;;20.80
29423;BMP180;16399;51.686;8.684;2023-08-06T13:42:36;98648.00;;;20.80
29423;BMP180;16399;51.686;8.684;2023-08-06T13:45:38;98653.00;;;20.80
29423;BMP180;16399;51.686;8.684;2023-08-06T13:48:41;98662.00;;;20.60
29423;BMP180;16399;51.686;8.684;2023-08-06T13:51:43;98674.00;;;20.50
29423;BMP180;16399;51.686;8.684;2023-08-06T13:54:45;98680.00;;;20.30
29423;BMP180;16399;51.686;8.684;2023-08-06T13:57:48;98679.00;;;20.20
29423;BMP180;16399;51.686;8.684;2023-08-06T14:00:50;98702.00;;;20.00
29423;BMP180;16399;51.686;8.684;2023-08-06T14:03:54;98707.00;;;19.60
29423;BMP180;16399;51.686;8.684;2023-08-06T14:06:56;98707.00;;;19.10
29423;BMP180;16399;51.686;8.684;2023-08-06T14:09:58;98713.00;;;18.50
29423;BMP180;16399;51.686;8.684;2023-08-06T14:13:01;98717.00;;;17.80
29423;BMP180;16399;51.686;8.684;2023-08-06T14:16:03;98734.00;;;17.20
29423;BMP180;16399;51.686;8.684;2023-08-06T14:19:05;98739.00;;;16.70
29423;BMP180;16399;51.686;8.684;2023-08-06T14:22:08;98744.00;;;16.50
29423;BMP180;16399;51.686;8.684;2023-08-06T14:25:10;98752.00;;;16.30
29423;BMP180;16399;51.686;8.684;2023-08-06T14:28:12;98750.00;;;16.20
29423;BMP180;16399;51.686;8.684;2023-08-06T14:31:14;98751.00;;;16.10
29423;BMP180;16399;51.686;8.684;2023-08-06T14:34:17;98762.00;;;16.10
29423;BMP180;16399;51.686;8.684;2023-08-06T14:37:19;98778.00;;;16.10
29423;BMP180;16399;51.686;8.684;2023-08-06T14:40:21;98799.00;;;16.00
29423;BMP180;16399;51.686;8.684;2023-08-06T14:43:24;98799.00;;;16.00
29423;BMP180;16399;51.686;8.684;2023-08-06T14:46:26;98795.00;;;15.90
29423;BMP180;16399;51.686;8.684;2023-08-06T14:49:28;98815.00;;;15.80
29423;BMP180;16399;51.686;8.684;2023-08-06T14:52:30;98815.00;;;15.70
29423;BMP180;16399;51.686;8.684;2023-08-06T14:55:33;98821.00;;;15.60
29423;BMP180;16399;51.686;8.684;2023-08-06T14:58:35;98830.00;;;15.60
29423;BMP180;16399;51.686;8.684;2023-08-06T15:01:37;98832.00;;;15.50
29423;BMP180;16399;51.686;8.684;2023-08-06T15:04:40;98842.00;;;15.50
29423;BMP180;16399;51.686;8.684;2023-08-06T15:07:42;98846.00;;;15.50
29423;BMP180;16399;51.686;8.684;2023-08-06T15:10:51;98852.00;;;15.40
29423;BMP180;16399;51.686;8.684;2023-08-06T15:13:54;98854.00;;;15.40
29423;BMP180;16399;51.686;8.684;2023-08-06T15:16:56;98846.00;;;15.40
29423;BMP180;16399;51.686;8.684;2023-08-06T15:19:58;98848.00;;;15.40
29423;BMP180;16399;51.686;8.684;2023-08-06T15:23:01;98855.00;;;15.30
29423;BMP180;16399;51.686;8.684;2023-08-06T15:26:03;98852.00;;;15.30
29423;BMP180;16399;51.686;8.684;2023-08-06T15:29:05;98853.00;;;15.40
29423;BMP180;16399;51.686;8.684;2023-08-06T15:32:08;98860.00;;;15.40
29423;BMP180;16399;51.686;8.684;2023-08-06T15:35:10;98866.00;;;15.40
29423;BMP180;16399;51.686;8.684;2023-08-06T15:38:13;98874.00;;;15.40
29423;BMP180;16399;51.686;8.684;2023-08-06T15:41:15;98871.00;;;15.50
29423;BMP180;16399;51.686;8.684;2023-08-06T15:44:18;98875.00;;;15.40
29423;BMP180;16399;51.686;8.684;2023-08-06T15:47:20;98864.00;;;15.40
29423;BMP180;16399;51.686;8.684;2023-08-06T15:50:23;98869.00;;;15.40
29423;BMP180;16399;51.686;8.684;2023-08-06T15:53:25;98874.00;;;15.40
29423;BMP180;16399;51.686;8.684;2023-08-06T15:56:27;98882.00;;;15.40
29423;BMP180;16399;51.686;8.684;2023-08-06T15:59:31;98886.00;;;15.30
29423;BMP180;16399;51.686;8.684;2023-08-06T16:02:34;98899.00;;;15.30
29423;BMP180;16399;51.686;8.684;2023-08-06T16:05:36;98876.00;;;15.30
29423;BMP180;16399;51.686;8.684;2023-08-06T16:08:39;98913.00;;;15.40
29423;BMP180;16399;51.686;8.684;2023-08-06T16:11:41;98917.00;;;15.40
29423;BMP180;16399;51.686;8.684;2023-08-06T16:14:44;98915.00;;;15.30
29423;BMP180;16399;51.686;8.684;2023-08-06T16:17:46;98925.00;;;15.30
29423;BMP180;16399;51.686;8.684;2023-08-06T16:20:49;98925.00;;;15.30
29423;BMP180;16399;51.686;8.684;2023-08-06T16:23:54;98932.00;;;15.30
29423;BMP180;16399;51.686;8.684;2023-08-06T16:26:57;98937.00;;;15.30
29423;BMP180;16399;51.686;8.684;2023-08-06T16:29:59;98950.00;;;15.30
29423;BMP180;16399;51.686;8.684;2023-08-06T16:33:01;98937.00;;;15.20
29423;BMP180;16399;51.686;8.684;2023-08-06T16:36:04;98942.00;;;15.20
29423;BMP180;16399;51.686;8.684;2023-08-06T16:39:06;98954.00;;;15.20
29423;BMP180;16399;51.686;8.684;2023-08-06T16:42:10;98938.00;;;15.20
29423;BMP180;16399;51.686;8.684;2023-08-06T16:45:13;98947.00;;;15.20
29423;BMP180;16399;51.686;8.684;2023-08-06T16:48:15;98950.00;;;15.20
29423;BMP180;16399;51.686;8.684;2023-08-06T16:51:17;98949.00;;;15.20
29423;BMP180;16399;51.686;8.684;2023-08-06T16:54:20;98957.00;;;15.10
29423;BMP180;16399;51.686;8.684;2023-08-06T16:57:22;98963.00;;;15.10
29423;BMP180;16399;51.686;8.684;2023-08-06T17:00:24;98958.00;;;15.10
29423;BMP180;16399;51.686;8.684;2023-08-06T17:03:28;98946.00;;;15.10
29423;BMP180;16399;51.686;8.684;2023-08-06T17:06:31;98954.00;;;15.10
29423;BMP180;16399;51.686;8.684;2023-08-06T17:09:33;98953.00;;;15.10
29423;BMP180;16399;51.686;8.684;2023-08-06T17:12:35;98954.00;;;15.00
29423;BMP180;16399;51.686;8.684;2023-08-06T17:15:38;98947.00;;;15.10
29423;BMP180;16399;51.686;8.684;2023-08-06T17:18:40;98967.00;;;15.00
29423;BMP180;16399;51.686;8.684;2023-08-06T17:21:43;98955.00;;;15.00
29423;BMP180;16399;51.686;8.684;2023-08-06T17:24:46;98963.00;;;15.00
29423;BMP180;16399;51.686;8.684;2023-08-06T17:27:48;98968.00;;;15.00
29423;BMP180;16399;51.686;8.684;2023-08-06T17:30:50;98953.00;;;15.00
29423;BMP180;16399;51.686;8.684;2023-08-06T17:33:53;98963.00;;;14.90
29423;BMP180;16399;51.686;8.684;2023-08-06T17:36:55;98956.00;;;14.90
29423;BMP180;16399;51.686;8.684;2023-08-06T17:39:58;98954.00;;;14.90